Jean Anne — WDC3786 — position and weather

sailwx.info

Track history (hours):
 
Tides and Currents Weather Stations Pressure Air Temp Water Temp Dewpoint Dewpoint Depression Visibility Wind Speed Wind Dir Waves Ship Positions

Jean Anne

More information available from US FCC via Universal Licensing System and Coast Guard Vessel Documentation Center.

Last reported at 2014-Sep-16 12:34 UTC. Time now 2014-Sep-16 13:31 UTC.
Position N 31°08' W 118°31'.

Type: Cargo ship. MMSI: 367003380.

Date/timePositionNaut miles runAvg speedWind from/ knotsBaromVisibWave heightAir tempDewpointWater temp
2014-Sep-16 12:34N 31°08' W 118°31'1918.7
2014-Sep-16 11:34N 31°00' W 118°50'2019.8
2014-Sep-16 10:33N 30°56' W 119°13'2019.5
2014-Sep-16 09:30N 30°52' W 119°36'1819.3
2014-Sep-16 08:33N 30°48' W 119°57'1918.9
2014-Sep-16 07:33N 30°44' W 120°19'1918.8
2014-Sep-16 06:33N 30°40' W 120°40'1918.8
2014-Sep-16 05:33N 30°36' W 121°02'1919.0
2014-Sep-16 04:33N 30°33' W 121°23'2018.9
2014-Sep-16 03:30N 30°28' W 121°46'4119.0
2014-Sep-16 01:21N 30°20' W 122°32'1619.3
2014-Sep-16 00:32N 30°17' W 122°50'59819.6
2014-Sep-14 18:00N 27°36' W 133°48'23119.2 200 / 51015.310.8 0.523.018.5
2014-Sep-14 06:00N 26°24' W 137°54'   020 / 51015.010.8 0.523.517.9
Track history (hours):
 
Tides and Currents Weather Stations Pressure Air Temp Water Temp Dewpoint Dewpoint Depression Visibility Wind Speed Wind Dir Waves Ship Positions

Jean Anne

More information available from US FCC via Universal Licensing System and Coast Guard Vessel Documentation Center.

Last reported at 2014-Sep-16 12:34 UTC. Time now 2014-Sep-16 13:31 UTC.
Position N 31°08' W 118°31'.

Type: Cargo ship. MMSI: 367003380.

Date/timePositionNaut miles runAvg speedWind from/ knotsBaromVisibWave heightAir tempDewpointWater temp
2014-Sep-16 12:34N 31°08' W 118°31'1918.7
2014-Sep-16 11:34N 31°00' W 118°50'2019.8
2014-Sep-16 10:33N 30°56' W 119°13'2019.5
2014-Sep-16 09:30N 30°52' W 119°36'1819.3
2014-Sep-16 08:33N 30°48' W 119°57'1918.9
2014-Sep-16 07:33N 30°44' W 120°19'1918.8
2014-Sep-16 06:33N 30°40' W 120°40'1918.8
2014-Sep-16 05:33N 30°36' W 121°02'1919.0
2014-Sep-16 04:33N 30°33' W 121°23'2018.9
2014-Sep-16 03:30N 30°28' W 121°46'4119.0
2014-Sep-16 01:21N 30°20' W 122°32'1619.3
2014-Sep-16 00:32N 30°17' W 122°50'59819.6
2014-Sep-14 18:00N 27°36' W 133°48'23119.2 200 / 51015.310.8 0.523.018.5
2014-Sep-14 06:00N 26°24' W 137°54'   020 / 51015.010.8 0.523.517.9

Dump ship's entire track history